createdAt,value
2022-09-25T00:00:22.258Z,63.28
2022-09-25T00:04:44.167Z,68.65
2022-09-25T00:08:46.231Z,70.65
2022-09-25T00:12:48.312Z,68.57
2022-09-25T00:16:50.095Z,60.15
2022-09-25T00:21:01.011Z,63.95
2022-09-25T00:25:03.545Z,67.10
2022-09-25T00:29:06.709Z,68.65
2022-09-25T00:33:08.482Z,69.15
2022-09-25T00:37:10.649Z,71.75
2022-09-25T00:41:12.879Z,79.95
2022-09-25T00:45:21.676Z,68.32
2022-09-25T00:53:36.470Z,65.82
2022-09-25T00:57:40.718Z,75.60
2022-09-25T01:01:42.915Z,75.35
2022-09-25T01:05:45.564Z,80.40
2022-09-25T01:09:47.407Z,66.75
2022-09-25T01:13:49.564Z,72.25
2022-09-25T01:18:05.937Z,67.93
2022-09-25T01:22:22.178Z,70.07
2022-09-25T01:26:42.405Z,67.50
2022-09-25T01:30:48.256Z,69.72
2022-09-25T01:34:59.763Z,62.78
2022-09-25T01:39:07.755Z,74.03
2022-09-25T01:43:34.713Z,72.95
2022-09-25T01:47:38.653Z,66.18
2022-09-25T01:51:51.881Z,66.05
2022-09-25T01:56:02.569Z,82.97
2022-09-25T02:00:07.597Z,88.75
2022-09-25T02:04:29.559Z,87.95
2022-09-25T02:08:39.588Z,75.53
2022-09-25T02:12:47.969Z,86.07
2022-09-25T02:16:56.347Z,81.63
2022-09-25T02:21:14.118Z,97.47
2022-09-25T02:25:25.496Z,103.13
2022-09-25T02:29:29.684Z,106.18
2022-09-25T02:33:31.665Z,91.30
2022-09-25T02:37:33.364Z,83.30
2022-09-25T02:42:03.482Z,80.50
2022-09-25T02:46:10.683Z,77.47
2022-09-25T02:50:42.264Z,83.33
2022-09-25T02:55:02.602Z,90.10
2022-09-25T02:59:09.555Z,77.88
2022-09-25T03:03:15.006Z,86.45
2022-09-25T03:07:18.592Z,81.07
2022-09-25T03:11:23.656Z,67.88
2022-09-25T03:15:26.113Z,76.43
2022-09-25T03:19:30.886Z,80.95
2022-09-25T03:23:32.939Z,69.75
2022-09-25T03:27:34.864Z,75.63
2022-09-25T03:31:36.681Z,68.20
2022-09-25T03:35:39.875Z,66.95
2022-09-25T03:39:41.814Z,71.15
2022-09-25T03:43:43.850Z,76.32
2022-09-25T03:47:45.692Z,57.17
2022-09-25T03:51:47.574Z,66.13
2022-09-25T03:55:49.562Z,62.03
2022-09-25T03:59:51.738Z,63.97
2022-09-25T04:03:54.208Z,61.58
2022-09-25T04:07:55.897Z,63.30
2022-09-25T04:11:57.908Z,75.82
2022-09-25T04:16:01.591Z,66.00
2022-09-25T04:20:03.715Z,62.22
2022-09-25T04:24:23.883Z,65.32
2022-09-25T04:28:26.569Z,60.83
2022-09-25T04:32:46.667Z,63.13
2022-09-25T04:36:48.548Z,58.45
2022-09-25T04:40:50.730Z,64.22
2022-09-25T04:44:54.154Z,62.15
2022-09-25T04:48:55.768Z,64.68
2022-09-25T04:52:58.311Z,62.13
2022-09-25T04:56:59.962Z,62.10
2022-09-25T05:01:08.314Z,65.72
2022-09-25T05:05:11.413Z,69.63
2022-09-25T05:09:13.250Z,64.32
2022-09-25T05:13:14.853Z,69.18
2022-09-25T05:17:16.912Z,62.58
2022-09-25T05:21:18.578Z,63.95
2022-09-25T05:25:23.449Z,56.00
2022-09-25T05:29:25.429Z,58.35
2022-09-25T05:33:27.241Z,62.97
2022-09-25T05:37:28.906Z,56.13
2022-09-25T05:41:32.048Z,58.92
2022-09-25T05:45:35.674Z,51.35
2022-09-25T05:49:37.437Z,60.80
2022-09-25T05:53:39.354Z,56.55
2022-09-25T05:57:41.246Z,58.88
2022-09-25T06:01:42.924Z,55.78
2022-09-25T06:05:46.024Z,58.17
2022-09-25T06:09:47.736Z,51.45
2022-09-25T06:13:54.291Z,58.45
2022-09-25T06:17:56.875Z,52.92
2022-09-25T06:21:58.764Z,60.97
2022-09-25T06:26:02.335Z,49.13
2022-09-25T06:30:05.072Z,54.20
2022-09-25T06:34:06.846Z,47.80
2022-09-25T06:38:09.302Z,42.88
2022-09-25T06:42:11.043Z,40.83
2022-09-25T06:46:12.883Z,44.67
2022-09-25T06:50:15.101Z,37.85
2022-09-25T06:54:17.683Z,41.50
2022-09-25T06:58:22.322Z,36.28
2022-09-25T07:02:42.922Z,36.67
2022-09-25T07:06:45.490Z,39.05
2022-09-25T07:10:49.339Z,39.22
2022-09-25T07:14:50.970Z,38.55
2022-09-25T07:18:54.657Z,41.30
2022-09-25T07:23:03.970Z,42.65
2022-09-25T07:27:05.916Z,36.80
2022-09-25T07:31:17.515Z,37.17
2022-09-25T07:35:19.907Z,35.53
2022-09-25T07:39:21.507Z,34.25
2022-09-25T07:43:23.596Z,37.72
2022-09-25T07:47:25.287Z,31.00
2022-09-25T07:51:27.114Z,28.60
2022-09-25T07:55:29.268Z,33.92
2022-09-25T07:59:31.103Z,30.80
2022-09-25T08:03:32.945Z,26.15
2022-09-25T08:07:34.857Z,29.55
2022-09-25T08:11:36.807Z,31.33
2022-09-25T08:15:38.770Z,26.88
2022-09-25T08:19:40.616Z,28.77
2022-09-25T08:23:47.693Z,28.17
2022-09-25T08:27:49.840Z,30.08
2022-09-25T08:31:51.792Z,36.13
2022-09-25T08:35:58.363Z,34.13
2022-09-25T08:40:00.860Z,35.25
2022-09-25T08:44:28.129Z,29.00
2022-09-25T08:48:53.668Z,31.77
2022-09-25T08:53:07.350Z,32.80
2022-09-25T08:57:29.462Z,30.30
2022-09-25T09:01:49.809Z,32.00
2022-09-25T09:06:06.995Z,30.88
2022-09-25T09:10:23.586Z,32.97
2022-09-25T09:14:30.885Z,30.20
2022-09-25T09:18:37.768Z,28.17
2022-09-25T09:22:45.378Z,22.83
2022-09-25T09:27:19.382Z,23.52
2022-09-25T09:31:33.826Z,20.23
2022-09-25T09:35:53.654Z,19.63
2022-09-25T09:40:20.545Z,18.58
2022-09-25T09:44:28.584Z,13.70
2022-09-25T09:48:59.508Z,14.68
2022-09-25T09:53:05.800Z,12.43
2022-09-25T09:57:26.885Z,14.52
2022-09-25T10:01:42.931Z,14.45
2022-09-25T10:05:49.963Z,14.38
2022-09-25T10:09:54.260Z,14.07
2022-09-25T10:14:00.065Z,10.80
2022-09-25T10:18:03.593Z,10.15
2022-09-25T10:22:16.879Z,11.50
2022-09-25T10:26:33.251Z,11.07
2022-09-25T10:30:35.192Z,13.25
2022-09-25T10:34:37.022Z,12.70
2022-09-25T10:38:53.478Z,14.13
2022-09-25T10:43:18.671Z,9.95
2022-09-25T10:47:39.171Z,10.77
2022-09-25T10:52:01.857Z,10.35
2022-09-25T10:56:06.945Z,10.88
2022-09-25T11:00:24.217Z,7.55
2022-09-25T11:04:32.449Z,7.55
2022-09-25T11:08:38.897Z,9.85
2022-09-25T11:12:45.264Z,14.00
2022-09-25T11:16:57.943Z,9.18
2022-09-25T11:21:04.639Z,15.07
2022-09-25T11:25:17.515Z,23.35
2022-09-25T11:29:41.106Z,11.18
2022-09-25T11:33:56.232Z,11.27
2022-09-25T11:38:17.129Z,11.23
2022-09-25T11:42:35.559Z,10.88
2022-09-25T11:46:46.899Z,11.50
2022-09-25T11:51:01.682Z,14.85
2022-09-25T11:55:23.071Z,13.80
2022-09-25T11:59:39.559Z,13.80
2022-09-25T12:04:20.301Z,11.82
2022-09-25T12:08:49.017Z,12.45
2022-09-25T12:13:15.177Z,9.65
2022-09-25T12:17:36.057Z,12.90
2022-09-25T12:22:05.488Z,8.85
2022-09-25T12:26:25.918Z,8.07
2022-09-25T12:30:38.824Z,8.13
2022-09-25T12:34:55.749Z,9.52
2022-09-25T12:39:08.808Z,10.13
2022-09-25T12:43:33.514Z,9.57
2022-09-25T12:47:46.576Z,8.23
2022-09-25T12:51:51.333Z,9.95
2022-09-25T12:55:59.715Z,7.78
2022-09-25T13:00:25.761Z,7.63
2022-09-25T13:05:02.315Z,8.93
2022-09-25T13:09:18.354Z,14.00
2022-09-25T13:13:24.804Z,9.23
2022-09-25T13:17:26.642Z,7.78
2022-09-25T13:21:35.761Z,8.90
2022-09-25T13:25:47.512Z,7.65
2022-09-25T13:29:57.013Z,7.63
2022-09-25T13:34:01.661Z,6.55
2022-09-25T13:38:36.008Z,10.70
2022-09-25T13:42:42.231Z,10.00
2022-09-25T13:46:44.052Z,12.38
2022-09-25T13:50:47.160Z,15.55
2022-09-25T13:54:49.064Z,9.68
2022-09-25T13:59:13.864Z,9.13
2022-09-25T14:03:44.151Z,9.48
2022-09-25T14:07:49.617Z,9.40
2022-09-25T14:12:04.077Z,8.65
2022-09-25T14:16:10.216Z,11.45
2022-09-25T14:20:32.420Z,8.73
2022-09-25T14:24:35.506Z,7.97
2022-09-25T14:28:47.671Z,12.80
2022-09-25T14:33:25.880Z,14.57
2022-09-25T14:37:52.543Z,12.50
2022-09-25T14:42:18.734Z,12.38
2022-09-25T14:46:22.419Z,8.38
2022-09-25T14:50:27.136Z,8.65
2022-09-25T14:54:35.946Z,13.30
2022-09-25T14:58:42.513Z,7.20
2022-09-25T15:02:46.802Z,10.85
2022-09-25T15:06:59.491Z,13.27
2022-09-25T15:11:12.249Z,9.50
2022-09-25T15:15:14.276Z,16.58
2022-09-25T15:19:22.762Z,18.05
2022-09-25T15:23:24.691Z,17.23
2022-09-25T15:27:28.402Z,16.40
2022-09-25T15:31:37.408Z,16.55
2022-09-25T15:35:39.489Z,17.73
2022-09-25T15:39:42.718Z,15.70
2022-09-25T15:43:44.862Z,17.98
2022-09-25T15:47:46.478Z,14.23
2022-09-25T15:51:58.248Z,14.40
2022-09-25T15:56:22.806Z,14.90
2022-09-25T16:00:44.902Z,13.18
2022-09-25T16:04:51.939Z,13.35
2022-09-25T16:09:09.159Z,15.85
2022-09-25T16:13:22.754Z,23.77
2022-09-25T16:17:29.439Z,19.25
2022-09-25T16:21:33.929Z,23.25
2022-09-25T16:25:42.498Z,20.52
2022-09-25T16:29:44.965Z,23.75
2022-09-25T16:33:50.701Z,24.83
2022-09-25T16:37:53.164Z,23.75
2022-09-25T16:41:55.820Z,31.75
2022-09-25T16:46:00.534Z,28.48
2022-09-25T16:50:02.722Z,26.42
2022-09-25T16:54:09.981Z,24.10
2022-09-25T16:58:12.431Z,30.05
2022-09-25T17:02:37.045Z,31.20
2022-09-25T17:06:40.927Z,29.52
2022-09-25T17:10:42.838Z,28.27
2022-09-25T17:14:44.842Z,24.67
2022-09-25T17:18:46.548Z,26.92
2022-09-25T17:22:49.267Z,33.00
2022-09-25T17:26:54.266Z,32.63
2022-09-25T17:30:56.226Z,35.53
2022-09-25T17:35:00.626Z,33.25
2022-09-25T17:39:02.485Z,35.90
2022-09-25T17:43:04.246Z,36.42
2022-09-25T17:47:06.379Z,34.45
2022-09-25T17:51:16.306Z,38.13
2022-09-25T17:55:20.509Z,41.67
2022-09-25T17:59:22.294Z,57.13
2022-09-25T18:03:24.203Z,63.47
2022-09-25T18:07:29.912Z,93.55
2022-09-25T18:11:34.672Z,128.65
2022-09-25T18:15:42.123Z,123.20
2022-09-25T18:20:02.770Z,102.93
2022-09-25T18:24:04.706Z,77.43
2022-09-25T18:28:07.133Z,63.35
2022-09-25T18:32:08.779Z,62.40
2022-09-25T18:36:10.871Z,70.97
2022-09-25T18:40:14.632Z,76.57
2022-09-25T18:44:17.900Z,64.55
2022-09-25T18:48:19.952Z,68.82
2022-09-25T18:52:21.919Z,58.13
2022-09-25T18:56:23.679Z,53.47
2022-09-25T19:00:26.786Z,53.58
2022-09-25T19:04:28.753Z,57.42
2022-09-25T19:08:31.297Z,64.18
2022-09-25T19:12:33.607Z,72.05
2022-09-25T19:16:38.254Z,65.20
2022-09-25T19:20:54.505Z,73.00
2022-09-25T19:24:56.797Z,64.60
2022-09-25T19:29:00.275Z,65.75
2022-09-25T19:33:02.312Z,70.28
2022-09-25T19:37:04.532Z,73.30
2022-09-25T19:41:15.689Z,75.28
2022-09-25T19:45:18.635Z,66.85
2022-09-25T19:49:20.756Z,82.47
2022-09-25T19:53:22.612Z,79.75
2022-09-25T19:57:24.523Z,130.63
2022-09-25T20:01:30.161Z,113.60
2022-09-25T20:05:41.262Z,94.57
2022-09-25T20:09:44.516Z,86.05
2022-09-25T20:13:48.802Z,78.53
2022-09-25T20:17:50.522Z,70.63
2022-09-25T20:21:53.029Z,61.35
2022-09-25T20:25:55.240Z,61.90
2022-09-25T20:29:57.103Z,63.67
2022-09-25T20:33:58.831Z,58.17
2022-09-25T20:38:00.749Z,61.85
2022-09-25T20:42:02.411Z,60.90
2022-09-25T20:46:09.794Z,57.15
2022-09-25T20:50:11.542Z,50.55
2022-09-25T20:54:13.717Z,61.13
2022-09-25T20:58:15.625Z,57.33
2022-09-25T21:02:17.721Z,57.10
2022-09-25T21:06:22.883Z,58.17
2022-09-25T21:10:24.756Z,53.88
2022-09-25T21:14:28.478Z,59.38
2022-09-25T21:18:31.735Z,59.10
2022-09-25T21:22:33.434Z,60.33
2022-09-25T21:26:35.455Z,63.22
2022-09-25T21:30:38.608Z,66.68
2022-09-25T21:34:40.528Z,58.33
2022-09-25T21:38:43.358Z,65.38
2022-09-25T21:42:45.166Z,73.40
2022-09-25T21:46:47.070Z,60.72
2022-09-25T21:50:53.983Z,73.93
2022-09-25T21:54:55.624Z,77.65
2022-09-25T21:58:58.592Z,66.45
2022-09-25T22:03:00.305Z,69.25
2022-09-25T22:07:02.477Z,71.43
2022-09-25T22:11:05.949Z,71.35
2022-09-25T22:15:09.358Z,79.10
2022-09-25T22:19:30.077Z,80.68
2022-09-25T22:23:32.038Z,81.95
2022-09-25T22:27:34.297Z,75.18
2022-09-25T22:31:38.587Z,74.90
2022-09-25T22:35:40.318Z,87.68
2022-09-25T22:39:42.390Z,85.63
2022-09-25T22:43:44.332Z,75.07
2022-09-25T22:47:46.148Z,90.88
2022-09-25T22:51:48.309Z,96.78
2022-09-25T22:55:50.693Z,88.13
2022-09-25T22:59:52.366Z,91.28
2022-09-25T23:03:59.067Z,80.15
2022-09-25T23:08:00.853Z,75.90
2022-09-25T23:12:03.102Z,91.57
2022-09-25T23:16:07.805Z,85.55
2022-09-25T23:20:09.824Z,82.28
2022-09-25T23:24:14.293Z,67.35
2022-09-25T23:28:16.405Z,84.97
2022-09-25T23:32:20.010Z,80.13
2022-09-25T23:36:24.862Z,90.75
2022-09-25T23:40:26.663Z,69.95
2022-09-25T23:44:28.479Z,84.45
2022-09-25T23:48:30.131Z,71.63
2022-09-25T23:52:32.065Z,85.88
2022-09-25T23:56:35.314Z,76.72
